sensor_id;sensor_type;location;lat;lon;timestamp;P1;durP1;ratioP1;P2;durP2;ratioP2
12306;SDS011;6216;51.146;7.008;2022-10-16T00:01:35;3.03;;;1.90;;
12306;SDS011;6216;51.146;7.008;2022-10-16T00:04:03;3.63;;;2.10;;
12306;SDS011;6216;51.146;7.008;2022-10-16T00:06:31;4.07;;;2.10;;
12306;SDS011;6216;51.146;7.008;2022-10-16T00:09:01;2.57;;;2.00;;
12306;SDS011;6216;51.146;7.008;2022-10-16T00:11:30;5.27;;;2.17;;
12306;SDS011;6216;51.146;7.008;2022-10-16T00:14:00;7.73;;;2.27;;
12306;SDS011;6216;51.146;7.008;2022-10-16T00:16:29;5.23;;;2.27;;
12306;SDS011;6216;51.146;7.008;2022-10-16T00:18:57;2.70;;;2.13;;
12306;SDS011;6216;51.146;7.008;2022-10-16T00:21:26;2.67;;;2.07;;
12306;SDS011;6216;51.146;7.008;2022-10-16T00:23:58;4.30;;;2.73;;
12306;SDS011;6216;51.146;7.008;2022-10-16T00:26:30;3.23;;;2.10;;
12306;SDS011;6216;51.146;7.008;2022-10-16T00:28:58;3.57;;;1.97;;
12306;SDS011;6216;51.146;7.008;2022-10-16T00:31:27;5.83;;;2.00;;
12306;SDS011;6216;51.146;7.008;2022-10-16T00:33:55;2.07;;;1.93;;
12306;SDS011;6216;51.146;7.008;2022-10-16T00:36:24;2.93;;;2.23;;
12306;SDS011;6216;51.146;7.008;2022-10-16T00:38:53;2.30;;;2.10;;
12306;SDS011;6216;51.146;7.008;2022-10-16T00:41:25;3.03;;;2.33;;
12306;SDS011;6216;51.146;7.008;2022-10-16T00:43:54;5.37;;;2.23;;
12306;SDS011;6216;51.146;7.008;2022-10-16T00:46:24;2.37;;;2.00;;
12306;SDS011;6216;51.146;7.008;2022-10-16T00:48:55;3.87;;;2.07;;
12306;SDS011;6216;51.146;7.008;2022-10-16T00:51:28;2.20;;;2.00;;
12306;SDS011;6216;51.146;7.008;2022-10-16T00:53:58;2.73;;;2.20;;
12306;SDS011;6216;51.146;7.008;2022-10-16T00:56:28;1.80;;;1.70;;
12306;SDS011;6216;51.146;7.008;2022-10-16T00:58:56;6.87;;;2.47;;
12306;SDS011;6216;51.146;7.008;2022-10-16T01:01:26;2.37;;;1.83;;
12306;SDS011;6216;51.146;7.008;2022-10-16T01:03:54;2.30;;;2.00;;
12306;SDS011;6216;51.146;7.008;2022-10-16T01:06:23;2.43;;;2.00;;
12306;SDS011;6216;51.146;7.008;2022-10-16T01:09:02;3.27;;;2.13;;
12306;SDS011;6216;51.146;7.008;2022-10-16T01:11:41;2.20;;;1.93;;
12306;SDS011;6216;51.146;7.008;2022-10-16T01:14:19;4.17;;;1.97;;
12306;SDS011;6216;51.146;7.008;2022-10-16T01:16:51;2.30;;;1.90;;
12306;SDS011;6216;51.146;7.008;2022-10-16T01:19:27;2.10;;;1.70;;
12306;SDS011;6216;51.146;7.008;2022-10-16T01:22:11;3.70;;;2.20;;
12306;SDS011;6216;51.146;7.008;2022-10-16T01:24:41;3.10;;;1.70;;
12306;SDS011;6216;51.146;7.008;2022-10-16T01:27:14;5.63;;;2.07;;
12306;SDS011;6216;51.146;7.008;2022-10-16T01:29:49;2.40;;;2.00;;
12306;SDS011;6216;51.146;7.008;2022-10-16T01:32:23;1.60;;;1.50;;
12306;SDS011;6216;51.146;7.008;2022-10-16T01:34:59;2.50;;;1.57;;
12306;SDS011;6216;51.146;7.008;2022-10-16T01:37:32;5.97;;;1.70;;
12306;SDS011;6216;51.146;7.008;2022-10-16T01:40:06;3.63;;;1.60;;
12306;SDS011;6216;51.146;7.008;2022-10-16T01:42:39;4.20;;;2.07;;
12306;SDS011;6216;51.146;7.008;2022-10-16T01:45:11;2.40;;;1.73;;
12306;SDS011;6216;51.146;7.008;2022-10-16T01:47:44;1.97;;;1.63;;
12306;SDS011;6216;51.146;7.008;2022-10-16T01:50:14;2.77;;;1.80;;
12306;SDS011;6216;51.146;7.008;2022-10-16T01:52:46;2.87;;;1.63;;
12306;SDS011;6216;51.146;7.008;2022-10-16T01:55:17;2.37;;;1.40;;
12306;SDS011;6216;51.146;7.008;2022-10-16T01:57:51;2.03;;;1.33;;
12306;SDS011;6216;51.146;7.008;2022-10-16T02:00:20;1.63;;;1.53;;
12306;SDS011;6216;51.146;7.008;2022-10-16T02:02:51;5.57;;;1.43;;
12306;SDS011;6216;51.146;7.008;2022-10-16T02:05:22;2.23;;;1.23;;
12306;SDS011;6216;51.146;7.008;2022-10-16T02:07:54;3.40;;;1.43;;
12306;SDS011;6216;51.146;7.008;2022-10-16T02:10:26;2.87;;;1.10;;
12306;SDS011;6216;51.146;7.008;2022-10-16T02:13:01;1.20;;;1.10;;
12306;SDS011;6216;51.146;7.008;2022-10-16T02:15:32;1.63;;;1.20;;
12306;SDS011;6216;51.146;7.008;2022-10-16T02:18:00;1.63;;;1.30;;
12306;SDS011;6216;51.146;7.008;2022-10-16T02:20:29;2.43;;;1.10;;
12306;SDS011;6216;51.146;7.008;2022-10-16T02:23:03;2.47;;;1.40;;
12306;SDS011;6216;51.146;7.008;2022-10-16T02:25:31;2.87;;;1.17;;
12306;SDS011;6216;51.146;7.008;2022-10-16T02:28:06;1.47;;;1.00;;
12306;SDS011;6216;51.146;7.008;2022-10-16T02:30:41;3.90;;;1.30;;
12306;SDS011;6216;51.146;7.008;2022-10-16T02:33:12;1.63;;;1.27;;
12306;SDS011;6216;51.146;7.008;2022-10-16T02:35:42;2.80;;;1.80;;
12306;SDS011;6216;51.146;7.008;2022-10-16T02:38:12;2.37;;;1.83;;
12306;SDS011;6216;51.146;7.008;2022-10-16T02:40:42;5.33;;;2.53;;
12306;SDS011;6216;51.146;7.008;2022-10-16T02:43:11;2.57;;;1.90;;
12306;SDS011;6216;51.146;7.008;2022-10-16T02:45:40;4.70;;;2.43;;
12306;SDS011;6216;51.146;7.008;2022-10-16T02:48:08;4.67;;;2.50;;
12306;SDS011;6216;51.146;7.008;2022-10-16T02:50:36;5.53;;;2.80;;
12306;SDS011;6216;51.146;7.008;2022-10-16T02:53:04;3.87;;;2.03;;
12306;SDS011;6216;51.146;7.008;2022-10-16T02:55:32;1.63;;;1.30;;
12306;SDS011;6216;51.146;7.008;2022-10-16T02:57:59;1.77;;;1.50;;
12306;SDS011;6216;51.146;7.008;2022-10-16T03:00:29;2.53;;;1.10;;
12306;SDS011;6216;51.146;7.008;2022-10-16T03:02:56;2.70;;;1.40;;
12306;SDS011;6216;51.146;7.008;2022-10-16T03:05:24;2.40;;;1.30;;
12306;SDS011;6216;51.146;7.008;2022-10-16T03:07:52;1.20;;;1.10;;
12306;SDS011;6216;51.146;7.008;2022-10-16T03:10:20;2.67;;;1.20;;
12306;SDS011;6216;51.146;7.008;2022-10-16T03:12:48;1.90;;;1.10;;
12306;SDS011;6216;51.146;7.008;2022-10-16T03:15:16;2.30;;;1.13;;
12306;SDS011;6216;51.146;7.008;2022-10-16T03:17:45;2.67;;;1.13;;
12306;SDS011;6216;51.146;7.008;2022-10-16T03:20:13;6.87;;;1.20;;
12306;SDS011;6216;51.146;7.008;2022-10-16T03:22:41;1.13;;;1.00;;
12306;SDS011;6216;51.146;7.008;2022-10-16T03:25:09;4.17;;;0.90;;
12306;SDS011;6216;51.146;7.008;2022-10-16T03:27:36;1.30;;;1.00;;
12306;SDS011;6216;51.146;7.008;2022-10-16T03:30:05;1.30;;;1.13;;
12306;SDS011;6216;51.146;7.008;2022-10-16T03:32:33;2.63;;;1.20;;
12306;SDS011;6216;51.146;7.008;2022-10-16T03:35:08;2.50;;;1.00;;
12306;SDS011;6216;51.146;7.008;2022-10-16T03:37:36;2.17;;;1.10;;
12306;SDS011;6216;51.146;7.008;2022-10-16T03:40:04;1.37;;;1.07;;
12306;SDS011;6216;51.146;7.008;2022-10-16T03:42:32;1.47;;;0.80;;
12306;SDS011;6216;51.146;7.008;2022-10-16T03:45:00;2.40;;;0.90;;
12306;SDS011;6216;51.146;7.008;2022-10-16T03:47:28;3.70;;;1.00;;
12306;SDS011;6216;51.146;7.008;2022-10-16T03:49:56;2.17;;;1.00;;
12306;SDS011;6216;51.146;7.008;2022-10-16T03:52:26;1.90;;;0.80;;
12306;SDS011;6216;51.146;7.008;2022-10-16T03:54:54;1.67;;;0.90;;
12306;SDS011;6216;51.146;7.008;2022-10-16T03:57:22;2.30;;;0.90;;
12306;SDS011;6216;51.146;7.008;2022-10-16T03:59:50;4.00;;;1.13;;
12306;SDS011;6216;51.146;7.008;2022-10-16T04:02:18;0.83;;;0.83;;
12306;SDS011;6216;51.146;7.008;2022-10-16T04:04:46;1.00;;;0.83;;
12306;SDS011;6216;51.146;7.008;2022-10-16T04:07:13;1.43;;;0.80;;
12306;SDS011;6216;51.146;7.008;2022-10-16T04:09:43;0.83;;;0.83;;
12306;SDS011;6216;51.146;7.008;2022-10-16T04:12:11;2.87;;;1.10;;
12306;SDS011;6216;51.146;7.008;2022-10-16T04:14:38;4.10;;;1.10;;
12306;SDS011;6216;51.146;7.008;2022-10-16T04:17:06;0.80;;;0.70;;
12306;SDS011;6216;51.146;7.008;2022-10-16T04:19:34;1.60;;;0.80;;
12306;SDS011;6216;51.146;7.008;2022-10-16T04:22:02;2.70;;;1.00;;
12306;SDS011;6216;51.146;7.008;2022-10-16T04:24:30;1.00;;;0.80;;
12306;SDS011;6216;51.146;7.008;2022-10-16T04:26:59;1.00;;;0.87;;
12306;SDS011;6216;51.146;7.008;2022-10-16T04:29:27;2.30;;;1.27;;
12306;SDS011;6216;51.146;7.008;2022-10-16T04:31:55;1.13;;;0.90;;
12306;SDS011;6216;51.146;7.008;2022-10-16T04:34:22;2.70;;;1.00;;
12306;SDS011;6216;51.146;7.008;2022-10-16T04:36:51;1.67;;;1.20;;
12306;SDS011;6216;51.146;7.008;2022-10-16T04:39:18;0.90;;;0.90;;
12306;SDS011;6216;51.146;7.008;2022-10-16T04:41:46;1.03;;;1.00;;
12306;SDS011;6216;51.146;7.008;2022-10-16T04:44:16;1.30;;;1.10;;
12306;SDS011;6216;51.146;7.008;2022-10-16T04:46:43;2.23;;;1.20;;
12306;SDS011;6216;51.146;7.008;2022-10-16T04:49:11;1.27;;;0.90;;
12306;SDS011;6216;51.146;7.008;2022-10-16T04:51:39;6.40;;;1.00;;
12306;SDS011;6216;51.146;7.008;2022-10-16T04:54:08;3.03;;;1.10;;
12306;SDS011;6216;51.146;7.008;2022-10-16T04:56:36;3.47;;;1.10;;
12306;SDS011;6216;51.146;7.008;2022-10-16T04:59:09;2.70;;;0.97;;
12306;SDS011;6216;51.146;7.008;2022-10-16T05:01:38;3.37;;;1.20;;
12306;SDS011;6216;51.146;7.008;2022-10-16T05:04:06;3.70;;;0.90;;
12306;SDS011;6216;51.146;7.008;2022-10-16T05:06:34;1.60;;;0.90;;
12306;SDS011;6216;51.146;7.008;2022-10-16T05:09:02;3.10;;;1.20;;
12306;SDS011;6216;51.146;7.008;2022-10-16T05:11:30;1.97;;;1.13;;
12306;SDS011;6216;51.146;7.008;2022-10-16T05:13:58;3.90;;;0.90;;
12306;SDS011;6216;51.146;7.008;2022-10-16T05:16:26;1.20;;;0.93;;
12306;SDS011;6216;51.146;7.008;2022-10-16T05:18:55;1.10;;;1.00;;
12306;SDS011;6216;51.146;7.008;2022-10-16T05:21:43;1.60;;;0.70;;
12306;SDS011;6216;51.146;7.008;2022-10-16T05:24:11;3.20;;;1.10;;
12306;SDS011;6216;51.146;7.008;2022-10-16T05:26:39;1.50;;;0.90;;
12306;SDS011;6216;51.146;7.008;2022-10-16T05:29:06;2.73;;;1.07;;
12306;SDS011;6216;51.146;7.008;2022-10-16T05:31:34;1.73;;;0.80;;
12306;SDS011;6216;51.146;7.008;2022-10-16T05:34:04;2.33;;;0.83;;
12306;SDS011;6216;51.146;7.008;2022-10-16T05:36:31;1.70;;;0.90;;
12306;SDS011;6216;51.146;7.008;2022-10-16T05:38:59;4.20;;;1.10;;
12306;SDS011;6216;51.146;7.008;2022-10-16T05:41:27;1.10;;;0.90;;
12306;SDS011;6216;51.146;7.008;2022-10-16T05:43:55;2.83;;;1.00;;
12306;SDS011;6216;51.146;7.008;2022-10-16T05:46:23;1.40;;;0.87;;
12306;SDS011;6216;51.146;7.008;2022-10-16T05:48:51;1.97;;;0.87;;
12306;SDS011;6216;51.146;7.008;2022-10-16T05:51:21;1.03;;;1.00;;
12306;SDS011;6216;51.146;7.008;2022-10-16T05:53:49;0.70;;;0.70;;
12306;SDS011;6216;51.146;7.008;2022-10-16T05:56:17;4.00;;;1.00;;
12306;SDS011;6216;51.146;7.008;2022-10-16T05:58:45;0.97;;;0.73;;
12306;SDS011;6216;51.146;7.008;2022-10-16T06:01:14;1.97;;;1.00;;
12306;SDS011;6216;51.146;7.008;2022-10-16T06:03:43;2.70;;;0.87;;
12306;SDS011;6216;51.146;7.008;2022-10-16T06:06:12;1.30;;;0.87;;
12306;SDS011;6216;51.146;7.008;2022-10-16T06:08:43;1.93;;;0.87;;
12306;SDS011;6216;51.146;7.008;2022-10-16T06:11:12;3.67;;;0.80;;
12306;SDS011;6216;51.146;7.008;2022-10-16T06:13:42;1.83;;;0.90;;
12306;SDS011;6216;51.146;7.008;2022-10-16T06:16:12;3.23;;;0.90;;
12306;SDS011;6216;51.146;7.008;2022-10-16T06:18:40;3.03;;;0.90;;
12306;SDS011;6216;51.146;7.008;2022-10-16T06:21:09;3.17;;;0.80;;
12306;SDS011;6216;51.146;7.008;2022-10-16T06:23:38;1.30;;;0.90;;
12306;SDS011;6216;51.146;7.008;2022-10-16T06:26:08;1.97;;;1.03;;
12306;SDS011;6216;51.146;7.008;2022-10-16T06:28:37;1.93;;;0.80;;
12306;SDS011;6216;51.146;7.008;2022-10-16T06:31:06;1.53;;;0.97;;
12306;SDS011;6216;51.146;7.008;2022-10-16T06:33:35;4.07;;;0.90;;
12306;SDS011;6216;51.146;7.008;2022-10-16T06:36:04;1.13;;;0.80;;
12306;SDS011;6216;51.146;7.008;2022-10-16T06:38:34;1.37;;;0.90;;
12306;SDS011;6216;51.146;7.008;2022-10-16T06:41:03;2.33;;;0.97;;
12306;SDS011;6216;51.146;7.008;2022-10-16T06:43:33;1.80;;;0.90;;
12306;SDS011;6216;51.146;7.008;2022-10-16T06:46:02;1.63;;;0.60;;
12306;SDS011;6216;51.146;7.008;2022-10-16T06:48:31;1.30;;;0.70;;
12306;SDS011;6216;51.146;7.008;2022-10-16T06:51:00;1.23;;;0.80;;
12306;SDS011;6216;51.146;7.008;2022-10-16T06:53:30;1.33;;;0.87;;
12306;SDS011;6216;51.146;7.008;2022-10-16T06:56:08;1.10;;;0.77;;
12306;SDS011;6216;51.146;7.008;2022-10-16T06:58:39;2.93;;;0.83;;
12306;SDS011;6216;51.146;7.008;2022-10-16T07:01:08;1.83;;;0.97;;
12306;SDS011;6216;51.146;7.008;2022-10-16T07:03:37;3.43;;;0.70;;
12306;SDS011;6216;51.146;7.008;2022-10-16T07:06:06;2.97;;;1.00;;
12306;SDS011;6216;51.146;7.008;2022-10-16T07:08:36;2.70;;;0.90;;
12306;SDS011;6216;51.146;7.008;2022-10-16T07:11:06;2.80;;;1.20;;
12306;SDS011;6216;51.146;7.008;2022-10-16T07:13:35;3.07;;;1.20;;
12306;SDS011;6216;51.146;7.008;2022-10-16T07:16:06;2.10;;;1.00;;
12306;SDS011;6216;51.146;7.008;2022-10-16T07:18:34;4.10;;;1.07;;
12306;SDS011;6216;51.146;7.008;2022-10-16T07:21:05;3.40;;;1.50;;
12306;SDS011;6216;51.146;7.008;2022-10-16T07:23:34;2.53;;;1.07;;
12306;SDS011;6216;51.146;7.008;2022-10-16T07:26:02;2.20;;;0.80;;
12306;SDS011;6216;51.146;7.008;2022-10-16T07:28:31;3.50;;;1.07;;
12306;SDS011;6216;51.146;7.008;2022-10-16T07:31:01;2.33;;;0.83;;
12306;SDS011;6216;51.146;7.008;2022-10-16T07:33:30;2.30;;;1.00;;
12306;SDS011;6216;51.146;7.008;2022-10-16T07:35:59;1.67;;;1.00;;
12306;SDS011;6216;51.146;7.008;2022-10-16T07:38:29;2.20;;;0.90;;
12306;SDS011;6216;51.146;7.008;2022-10-16T07:40:57;2.07;;;0.97;;
12306;SDS011;6216;51.146;7.008;2022-10-16T07:43:26;2.80;;;1.10;;
12306;SDS011;6216;51.146;7.008;2022-10-16T07:45:55;1.43;;;1.10;;
12306;SDS011;6216;51.146;7.008;2022-10-16T07:48:28;1.50;;;1.00;;
12306;SDS011;6216;51.146;7.008;2022-10-16T07:50:59;3.43;;;1.50;;
12306;SDS011;6216;51.146;7.008;2022-10-16T07:53:28;2.57;;;1.30;;
12306;SDS011;6216;51.146;7.008;2022-10-16T07:55:57;1.30;;;0.90;;
12306;SDS011;6216;51.146;7.008;2022-10-16T07:58:25;2.27;;;1.10;;
12306;SDS011;6216;51.146;7.008;2022-10-16T08:00:54;1.77;;;0.93;;
12306;SDS011;6216;51.146;7.008;2022-10-16T08:03:22;1.20;;;1.00;;
12306;SDS011;6216;51.146;7.008;2022-10-16T08:05:51;1.83;;;0.87;;
12306;SDS011;6216;51.146;7.008;2022-10-16T08:08:19;0.77;;;0.70;;
12306;SDS011;6216;51.146;7.008;2022-10-16T08:10:47;2.10;;;0.90;;
12306;SDS011;6216;51.146;7.008;2022-10-16T08:13:15;3.07;;;1.20;;
12306;SDS011;6216;51.146;7.008;2022-10-16T08:15:44;2.27;;;0.70;;
12306;SDS011;6216;51.146;7.008;2022-10-16T08:18:13;2.00;;;0.80;;
12306;SDS011;6216;51.146;7.008;2022-10-16T08:20:42;0.43;;;0.43;;
12306;SDS011;6216;51.146;7.008;2022-10-16T08:23:12;2.67;;;0.80;;
12306;SDS011;6216;51.146;7.008;2022-10-16T08:25:40;1.43;;;0.80;;
12306;SDS011;6216;51.146;7.008;2022-10-16T08:28:09;2.00;;;0.90;;
12306;SDS011;6216;51.146;7.008;2022-10-16T08:30:38;1.27;;;1.00;;
12306;SDS011;6216;51.146;7.008;2022-10-16T08:33:06;1.60;;;0.80;;
12306;SDS011;6216;51.146;7.008;2022-10-16T08:35:34;2.43;;;1.00;;
12306;SDS011;6216;51.146;7.008;2022-10-16T08:38:02;1.10;;;0.83;;
12306;SDS011;6216;51.146;7.008;2022-10-16T08:40:32;2.53;;;0.80;;
12306;SDS011;6216;51.146;7.008;2022-10-16T08:43:06;1.00;;;0.50;;
12306;SDS011;6216;51.146;7.008;2022-10-16T08:45:54;4.00;;;0.70;;
12306;SDS011;6216;51.146;7.008;2022-10-16T08:48:35;4.83;;;0.70;;
12306;SDS011;6216;51.146;7.008;2022-10-16T08:51:10;0.93;;;0.50;;
12306;SDS011;6216;51.146;7.008;2022-10-16T08:53:43;5.00;;;0.80;;
12306;SDS011;6216;51.146;7.008;2022-10-16T08:56:18;1.27;;;0.60;;
12306;SDS011;6216;51.146;7.008;2022-10-16T08:58:46;1.73;;;0.67;;
12306;SDS011;6216;51.146;7.008;2022-10-16T09:01:19;2.47;;;1.20;;
12306;SDS011;6216;51.146;7.008;2022-10-16T09:03:57;3.00;;;0.90;;
12306;SDS011;6216;51.146;7.008;2022-10-16T09:06:36;2.50;;;0.57;;
12306;SDS011;6216;51.146;7.008;2022-10-16T09:09:15;2.17;;;0.70;;
12306;SDS011;6216;51.146;7.008;2022-10-16T09:11:55;0.83;;;0.73;;
12306;SDS011;6216;51.146;7.008;2022-10-16T09:14:38;2.30;;;0.60;;
12306;SDS011;6216;51.146;7.008;2022-10-16T09:17:18;0.70;;;0.50;;
12306;SDS011;6216;51.146;7.008;2022-10-16T09:19:54;2.77;;;1.33;;
12306;SDS011;6216;51.146;7.008;2022-10-16T09:22:29;3.27;;;0.60;;
12306;SDS011;6216;51.146;7.008;2022-10-16T09:24:59;2.37;;;0.70;;
12306;SDS011;6216;51.146;7.008;2022-10-16T09:27:38;3.00;;;0.60;;
12306;SDS011;6216;51.146;7.008;2022-10-16T09:30:10;1.93;;;0.67;;
12306;SDS011;6216;51.146;7.008;2022-10-16T09:32:40;2.30;;;0.77;;
12306;SDS011;6216;51.146;7.008;2022-10-16T09:35:13;1.87;;;0.60;;
12306;SDS011;6216;51.146;7.008;2022-10-16T09:37:44;1.30;;;0.40;;
12306;SDS011;6216;51.146;7.008;2022-10-16T09:40:23;1.80;;;0.53;;
12306;SDS011;6216;51.146;7.008;2022-10-16T09:43:05;1.03;;;0.60;;
12306;SDS011;6216;51.146;7.008;2022-10-16T09:45:52;1.90;;;0.50;;
12306;SDS011;6216;51.146;7.008;2022-10-16T09:48:21;2.10;;;0.60;;
12306;SDS011;6216;51.146;7.008;2022-10-16T09:50:56;1.50;;;0.53;;
12306;SDS011;6216;51.146;7.008;2022-10-16T09:53:26;0.73;;;0.50;;
12306;SDS011;6216;51.146;7.008;2022-10-16T09:56:06;4.10;;;0.70;;
12306;SDS011;6216;51.146;7.008;2022-10-16T09:58:43;2.20;;;0.50;;
12306;SDS011;6216;51.146;7.008;2022-10-16T10:01:16;2.23;;;0.70;;
12306;SDS011;6216;51.146;7.008;2022-10-16T10:03:45;1.60;;;0.40;;
12306;SDS011;6216;51.146;7.008;2022-10-16T10:06:16;4.53;;;0.80;;
12306;SDS011;6216;51.146;7.008;2022-10-16T10:08:54;2.10;;;0.60;;
12306;SDS011;6216;51.146;7.008;2022-10-16T10:14:21;0.50;;;0.50;;
12306;SDS011;6216;51.146;7.008;2022-10-16T10:16:51;1.53;;;0.73;;
12306;SDS011;6216;51.146;7.008;2022-10-16T10:19:21;0.67;;;0.60;;
12306;SDS011;6216;51.146;7.008;2022-10-16T10:21:54;2.27;;;0.70;;
12306;SDS011;6216;51.146;7.008;2022-10-16T10:24:22;2.60;;;0.83;;
12306;SDS011;6216;51.146;7.008;2022-10-16T10:26:51;1.43;;;0.70;;
12306;SDS011;6216;51.146;7.008;2022-10-16T10:29:28;1.27;;;0.60;;
12306;SDS011;6216;51.146;7.008;2022-10-16T10:32:09;2.60;;;0.90;;
12306;SDS011;6216;51.146;7.008;2022-10-16T10:34:49;1.07;;;0.70;;
12306;SDS011;6216;51.146;7.008;2022-10-16T10:37:42;2.63;;;0.83;;
12306;SDS011;6216;51.146;7.008;2022-10-16T10:40:23;1.83;;;0.70;;
12306;SDS011;6216;51.146;7.008;2022-10-16T10:43:01;0.63;;;0.53;;
12306;SDS011;6216;51.146;7.008;2022-10-16T10:45:41;3.27;;;0.80;;
12306;SDS011;6216;51.146;7.008;2022-10-16T10:48:22;1.00;;;0.70;;
12306;SDS011;6216;51.146;7.008;2022-10-16T10:51:01;1.20;;;0.70;;
12306;SDS011;6216;51.146;7.008;2022-10-16T10:53:38;3.63;;;1.00;;
12306;SDS011;6216;51.146;7.008;2022-10-16T10:56:16;0.93;;;0.60;;
12306;SDS011;6216;51.146;7.008;2022-10-16T10:59:02;2.47;;;0.87;;
12306;SDS011;6216;51.146;7.008;2022-10-16T11:01:46;2.43;;;0.80;;
12306;SDS011;6216;51.146;7.008;2022-10-16T11:04:24;4.20;;;0.90;;
12306;SDS011;6216;51.146;7.008;2022-10-16T11:07:05;1.30;;;0.80;;
12306;SDS011;6216;51.146;7.008;2022-10-16T11:09:38;1.60;;;0.60;;
12306;SDS011;6216;51.146;7.008;2022-10-16T11:12:11;1.63;;;0.63;;
12306;SDS011;6216;51.146;7.008;2022-10-16T11:14:46;4.53;;;0.70;;
12306;SDS011;6216;51.146;7.008;2022-10-16T11:17:22;1.47;;;0.73;;
12306;SDS011;6216;51.146;7.008;2022-10-16T11:19:55;2.77;;;0.70;;
12306;SDS011;6216;51.146;7.008;2022-10-16T11:22:30;0.87;;;0.50;;
12306;SDS011;6216;51.146;7.008;2022-10-16T11:25:02;1.53;;;0.50;;
12306;SDS011;6216;51.146;7.008;2022-10-16T11:27:41;1.63;;;0.50;;
12306;SDS011;6216;51.146;7.008;2022-10-16T11:30:13;4.10;;;0.70;;
12306;SDS011;6216;51.146;7.008;2022-10-16T11:32:50;3.43;;;0.60;;
12306;SDS011;6216;51.146;7.008;2022-10-16T11:35:36;1.83;;;0.67;;
12306;SDS011;6216;51.146;7.008;2022-10-16T11:38:10;2.00;;;0.57;;
12306;SDS011;6216;51.146;7.008;2022-10-16T11:40:43;3.77;;;2.87;;
12306;SDS011;6216;51.146;7.008;2022-10-16T11:43:15;6.53;;;2.43;;
12306;SDS011;6216;51.146;7.008;2022-10-16T11:45:49;0.90;;;0.70;;
12306;SDS011;6216;51.146;7.008;2022-10-16T11:48:30;4.90;;;0.80;;
12306;SDS011;6216;51.146;7.008;2022-10-16T11:51:03;1.33;;;0.60;;
12306;SDS011;6216;51.146;7.008;2022-10-16T11:53:38;1.17;;;0.30;;
12306;SDS011;6216;51.146;7.008;2022-10-16T11:56:13;1.90;;;0.70;;
12306;SDS011;6216;51.146;7.008;2022-10-16T11:58:47;2.33;;;0.67;;
12306;SDS011;6216;51.146;7.008;2022-10-16T12:01:22;1.63;;;0.60;;
12306;SDS011;6216;51.146;7.008;2022-10-16T12:04:02;1.80;;;0.77;;
12306;SDS011;6216;51.146;7.008;2022-10-16T12:06:42;1.07;;;0.63;;
12306;SDS011;6216;51.146;7.008;2022-10-16T12:09:15;1.50;;;0.53;;
12306;SDS011;6216;51.146;7.008;2022-10-16T12:11:49;3.07;;;0.50;;
12306;SDS011;6216;51.146;7.008;2022-10-16T12:14:21;1.73;;;0.60;;
12306;SDS011;6216;51.146;7.008;2022-10-16T12:17:24;1.73;;;0.60;;
12306;SDS011;6216;51.146;7.008;2022-10-16T12:19:59;3.27;;;0.50;;
12306;SDS011;6216;51.146;7.008;2022-10-16T12:22:29;2.50;;;0.70;;
12306;SDS011;6216;51.146;7.008;2022-10-16T12:25:04;0.67;;;0.40;;
12306;SDS011;6216;51.146;7.008;2022-10-16T12:27:33;2.27;;;0.80;;
12306;SDS011;6216;51.146;7.008;2022-10-16T12:30:02;3.67;;;0.87;;
12306;SDS011;6216;51.146;7.008;2022-10-16T12:32:34;0.80;;;0.30;;
12306;SDS011;6216;51.146;7.008;2022-10-16T12:35:19;2.67;;;0.97;;
12306;SDS011;6216;51.146;7.008;2022-10-16T12:37:48;0.50;;;0.50;;
12306;SDS011;6216;51.146;7.008;2022-10-16T12:40:24;2.13;;;0.60;;
12306;SDS011;6216;51.146;7.008;2022-10-16T12:42:54;3.80;;;0.77;;
12306;SDS011;6216;51.146;7.008;2022-10-16T12:45:27;2.47;;;0.90;;
12306;SDS011;6216;51.146;7.008;2022-10-16T12:47:57;2.63;;;0.80;;
12306;SDS011;6216;51.146;7.008;2022-10-16T12:50:33;2.17;;;0.53;;
12306;SDS011;6216;51.146;7.008;2022-10-16T12:53:03;1.03;;;0.60;;
12306;SDS011;6216;51.146;7.008;2022-10-16T12:55:45;1.13;;;0.60;;
12306;SDS011;6216;51.146;7.008;2022-10-16T12:58:27;4.37;;;0.50;;
12306;SDS011;6216;51.146;7.008;2022-10-16T13:01:20;1.33;;;0.67;;
12306;SDS011;6216;51.146;7.008;2022-10-16T13:04:04;2.10;;;0.47;;
12306;SDS011;6216;51.146;7.008;2022-10-16T13:07:00;1.33;;;0.50;;
12306;SDS011;6216;51.146;7.008;2022-10-16T13:09:37;1.40;;;0.60;;
12306;SDS011;6216;51.146;7.008;2022-10-16T13:12:16;0.97;;;0.50;;
12306;SDS011;6216;51.146;7.008;2022-10-16T13:17:50;1.70;;;0.73;;
12306;SDS011;6216;51.146;7.008;2022-10-16T13:20:26;1.40;;;0.50;;
12306;SDS011;6216;51.146;7.008;2022-10-16T13:23:05;1.70;;;0.40;;
12306;SDS011;6216;51.146;7.008;2022-10-16T13:25:44;1.70;;;0.40;;
12306;SDS011;6216;51.146;7.008;2022-10-16T13:28:27;1.03;;;0.40;;
12306;SDS011;6216;51.146;7.008;2022-10-16T13:30:57;1.37;;;0.70;;
12306;SDS011;6216;51.146;7.008;2022-10-16T13:33:28;1.30;;;0.60;;
12306;SDS011;6216;51.146;7.008;2022-10-16T13:35:59;1.47;;;0.50;;
12306;SDS011;6216;51.146;7.008;2022-10-16T13:38:29;1.40;;;0.67;;
12306;SDS011;6216;51.146;7.008;2022-10-16T13:40:59;0.87;;;0.57;;
12306;SDS011;6216;51.146;7.008;2022-10-16T13:43:28;0.60;;;0.40;;
12306;SDS011;6216;51.146;7.008;2022-10-16T13:46:00;1.43;;;0.60;;
12306;SDS011;6216;51.146;7.008;2022-10-16T13:48:29;2.27;;;0.53;;
12306;SDS011;6216;51.146;7.008;2022-10-16T13:51:03;1.10;;;0.50;;
12306;SDS011;6216;51.146;7.008;2022-10-16T13:53:34;0.50;;;0.40;;
12306;SDS011;6216;51.146;7.008;2022-10-16T13:56:03;1.37;;;0.70;;
12306;SDS011;6216;51.146;7.008;2022-10-16T13:58:32;1.20;;;0.70;;
12306;SDS011;6216;51.146;7.008;2022-10-16T14:01:01;2.53;;;0.80;;
12306;SDS011;6216;51.146;7.008;2022-10-16T14:03:31;11.73;;;0.83;;
12306;SDS011;6216;51.146;7.008;2022-10-16T14:06:03;1.83;;;0.80;;
12306;SDS011;6216;51.146;7.008;2022-10-16T14:08:42;1.13;;;0.47;;
12306;SDS011;6216;51.146;7.008;2022-10-16T14:11:12;0.70;;;0.60;;
12306;SDS011;6216;51.146;7.008;2022-10-16T14:13:43;1.03;;;0.60;;
12306;SDS011;6216;51.146;7.008;2022-10-16T14:16:16;0.80;;;0.50;;
12306;SDS011;6216;51.146;7.008;2022-10-16T14:18:48;1.43;;;0.77;;
12306;SDS011;6216;51.146;7.008;2022-10-16T14:21:22;1.50;;;0.57;;
12306;SDS011;6216;51.146;7.008;2022-10-16T14:23:54;1.33;;;0.60;;
12306;SDS011;6216;51.146;7.008;2022-10-16T14:26:23;1.03;;;0.50;;
12306;SDS011;6216;51.146;7.008;2022-10-16T14:29:04;1.50;;;0.50;;
12306;SDS011;6216;51.146;7.008;2022-10-16T14:31:41;1.27;;;0.30;;
12306;SDS011;6216;51.146;7.008;2022-10-16T14:34:25;1.03;;;0.77;;
12306;SDS011;6216;51.146;7.008;2022-10-16T14:36:56;1.80;;;0.40;;
12306;SDS011;6216;51.146;7.008;2022-10-16T14:39:28;0.30;;;0.30;;
12306;SDS011;6216;51.146;7.008;2022-10-16T14:41:56;1.07;;;0.63;;
12306;SDS011;6216;51.146;7.008;2022-10-16T14:44:27;1.37;;;0.50;;
12306;SDS011;6216;51.146;7.008;2022-10-16T14:46:58;1.40;;;0.77;;
12306;SDS011;6216;51.146;7.008;2022-10-16T14:49:35;1.73;;;0.70;;
12306;SDS011;6216;51.146;7.008;2022-10-16T14:52:07;0.93;;;0.53;;
12306;SDS011;6216;51.146;7.008;2022-10-16T14:54:38;2.23;;;0.50;;
12306;SDS011;6216;51.146;7.008;2022-10-16T14:57:13;1.07;;;0.70;;
12306;SDS011;6216;51.146;7.008;2022-10-16T14:59:44;0.80;;;0.60;;
12306;SDS011;6216;51.146;7.008;2022-10-16T15:02:16;0.63;;;0.47;;
12306;SDS011;6216;51.146;7.008;2022-10-16T15:04:48;1.23;;;0.50;;
12306;SDS011;6216;51.146;7.008;2022-10-16T15:07:16;1.23;;;0.80;;
12306;SDS011;6216;51.146;7.008;2022-10-16T15:09:46;1.30;;;0.43;;
12306;SDS011;6216;51.146;7.008;2022-10-16T15:12:14;2.23;;;0.53;;
12306;SDS011;6216;51.146;7.008;2022-10-16T15:14:43;0.50;;;0.50;;
12306;SDS011;6216;51.146;7.008;2022-10-16T15:17:11;2.33;;;0.40;;
12306;SDS011;6216;51.146;7.008;2022-10-16T15:19:43;1.30;;;0.50;;
12306;SDS011;6216;51.146;7.008;2022-10-16T15:22:12;1.23;;;0.37;;
12306;SDS011;6216;51.146;7.008;2022-10-16T15:24:40;1.17;;;0.73;;
12306;SDS011;6216;51.146;7.008;2022-10-16T15:27:09;2.07;;;0.50;;
12306;SDS011;6216;51.146;7.008;2022-10-16T15:29:37;1.70;;;0.43;;
12306;SDS011;6216;51.146;7.008;2022-10-16T15:32:05;1.10;;;0.50;;
12306;SDS011;6216;51.146;7.008;2022-10-16T15:34:33;4.23;;;1.27;;